Time;durP1;ratioP1;P1;durP2;ratioP2;P2;SDS_P1;SDS_P2;PMS_P1;PMS_P2;Temp;Humidity;BMP_temperature;BMP_pressure;BME280_temperature;BME280_humidity;BME280_pressure;Samples;Min_cycle;Max_cycle;Signal;HPM_P1;HPM_P2
2020/12/23 00:01:22;;;;;;;34.22;16.05;;;1.70;65.10;;;;;;5055963;28;20420;-72
2020/12/23 00:03:48;;;;;;;32.67;15.90;;;1.70;65.30;;;;;;5055983;28;20025;-73
2020/12/23 00:06:14;;;;;;;30.65;15.65;;;1.80;65.40;;;;;;5055973;28;20510;-72
2020/12/23 00:08:40;;;;;;;31.55;15.85;;;1.80;65.30;;;;;;5055528;28;20025;-72
2020/12/23 00:11:05;;;;;;;32.90;16.85;;;1.90;65.20;;;;;;5056194;28;20037;-72
2020/12/23 00:13:31;;;;;;;34.15;16.45;;;1.90;64.90;;;;;;5054171;28;20465;-73
2020/12/23 00:15:57;;;;;;;36.05;17.02;;;1.80;64.80;;;;;;5055672;28;20070;-72
2020/12/23 00:18:24;;;;;;;32.40;15.65;;;1.80;64.80;;;;;;5056226;28;20437;-71
2020/12/23 00:20:49;;;;;;;27.30;14.68;;;1.80;64.90;;;;;;5055402;28;20480;-72
2020/12/23 00:23:15;;;;;;;33.50;15.85;;;1.80;64.70;;;;;;5055634;28;20020;-73
2020/12/23 00:25:41;;;;;;;29.70;14.65;;;1.70;64.50;;;;;;5055636;28;20029;-73
2020/12/23 00:28:06;;;;;;;32.40;15.25;;;1.70;64.80;;;;;;5055566;28;20048;-72
2020/12/23 00:30:32;;;;;;;35.85;17.20;;;1.70;64.60;;;;;;5055116;28;20032;-71
2020/12/23 00:32:58;;;;;;;39.95;17.98;;;1.60;64.80;;;;;;5055311;28;20039;-72
2020/12/23 00:35:23;;;;;;;54.47;21.13;;;1.70;64.90;;;;;;5054075;28;20082;-72
2020/12/23 00:37:51;;;;;;;56.38;22.33;;;1.70;64.80;;;;;;5055363;28;20024;-73
2020/12/23 00:40:16;;;;;;;52.20;19.30;;;1.60;64.80;;;;;;5053987;28;20036;-72
2020/12/23 00:42:42;;;;;;;50.05;19.40;;;1.60;64.50;;;;;;5055026;28;20021;-71
2020/12/23 00:45:08;;;;;;;63.83;23.90;;;1.60;64.60;;;;;;5055194;28;20032;-72
2020/12/23 00:47:34;;;;;;;83.93;30.00;;;1.60;64.50;;;;;;5055406;28;20100;-72
2020/12/23 00:49:59;;;;;;;73.00;28.70;;;1.60;64.80;;;;;;5055068;28;20024;-72
2020/12/23 00:52:25;;;;;;;56.53;21.02;;;1.60;64.60;;;;;;5055293;28;20464;-72
2020/12/23 00:54:51;;;;;;;60.28;22.85;;;1.60;64.70;;;;;;5055258;28;20083;-72
2020/12/23 00:57:16;;;;;;;39.67;15.55;;;1.60;64.90;;;;;;5054702;28;20021;-72
2020/12/23 00:59:42;;;;;;;41.90;15.18;;;1.50;64.80;;;;;;5054817;28;20024;-72
2020/12/23 01:02:08;;;;;;;46.15;18.98;;;1.50;64.80;;;;;;5053627;28;20017;-71
2020/12/23 01:04:33;;;;;;;40.97;18.35;;;1.50;64.70;;;;;;5054799;28;20461;-71
2020/12/23 01:06:59;;;;;;;37.17;17.02;;;1.50;65.00;;;;;;5055030;28;20021;-72
2020/12/23 01:09:24;;;;;;;35.33;16.40;;;1.50;65.30;;;;;;5054465;28;20037;-72
2020/12/23 01:11:52;;;;;;;45.25;18.02;;;1.50;65.10;;;;;;5054397;28;20025;-71
2020/12/23 01:14:18;;;;;;;40.95;17.58;;;1.50;65.50;;;;;;5054149;28;20043;-72
2020/12/23 01:16:45;;;;;;;51.53;18.92;;;1.50;65.40;;;;;;5054533;28;20025;-72
2020/12/23 01:19:11;;;;;;;33.92;14.23;;;1.50;65.30;;;;;;5054907;28;20040;-71
2020/12/23 01:21:37;;;;;;;34.50;14.38;;;1.50;65.20;;;;;;5054564;28;20079;-72
2020/12/23 01:24:03;;;;;;;39.88;16.30;;;1.40;65.00;;;;;;5054686;28;20028;-72
2020/12/23 01:26:29;;;;;;;34.20;15.15;;;1.40;65.30;;;;;;5054386;28;20360;-72
2020/12/23 01:28:54;;;;;;;40.47;14.50;;;1.40;65.60;;;;;;5053876;28;20028;-72
2020/12/23 01:31:20;;;;;;;52.40;21.20;;;1.40;65.70;;;;;;5054355;28;20346;-72
2020/12/23 01:33:46;;;;;;;50.10;19.63;;;1.40;65.50;;;;;;5054504;28;20330;-72
2020/12/23 01:36:11;;;;;;;38.95;16.65;;;1.30;65.50;;;;;;5054241;28;20056;-72
2020/12/23 01:38:37;;;;;;;35.28;14.98;;;1.30;65.60;;;;;;5054418;28;20352;-73
2020/12/23 01:41:05;;;;;;;35.28;16.80;;;1.30;65.60;;;;;;5053993;28;20074;-73
2020/12/23 01:43:32;;;;;;;53.33;20.25;;;1.30;65.70;;;;;;5052122;28;20457;-71
2020/12/23 01:45:57;;;;;;;69.10;25.02;;;1.30;65.80;;;;;;5054028;28;20021;-72
2020/12/23 01:48:29;;;;;;;68.13;23.60;;;1.30;66.00;;;;;;5053750;28;20043;-71
2020/12/23 01:50:58;;;;;;;79.20;27.65;;;1.30;66.10;;;;;;5052564;28;20028;-71
2020/12/23 01:53:26;;;;;;;74.70;26.63;;;1.30;66.20;;;;;;5053810;28;20025;-72
2020/12/23 01:55:52;;;;;;;68.90;25.55;;;1.40;66.20;;;;;;5052433;28;20368;-71
2020/12/23 01:58:18;;;;;;;57.58;23.17;;;1.40;66.20;;;;;;5052540;28;20365;-71
2020/12/23 02:00:44;;;;;;;62.22;23.05;;;1.40;66.20;;;;;;5052971;28;20025;-72
2020/12/23 02:03:11;;;;;;;57.45;19.98;;;1.40;66.20;;;;;;5053423;28;20016;-72
2020/12/23 02:05:41;;;;;;;63.55;24.30;;;1.40;66.10;;;;;;5054073;28;20100;-73
2020/12/23 02:08:09;;;;;;;70.55;26.77;;;1.40;66.10;;;;;;5053693;28;20029;-71
2020/12/23 02:10:35;;;;;;;75.93;27.23;;;1.40;66.10;;;;;;5053349;28;20044;-71
2020/12/23 02:13:00;;;;;;;71.32;26.77;;;1.40;66.20;;;;;;5054209;28;20058;-72
2020/12/23 02:15:27;;;;;;;81.72;28.23;;;1.40;66.20;;;;;;5053879;28;20135;-71
2020/12/23 02:17:53;;;;;;;69.03;27.63;;;1.40;66.20;;;;;;5053575;28;20095;-71
2020/12/23 02:20:18;;;;;;;70.38;27.02;;;1.50;66.40;;;;;;5053421;28;20060;-72
2020/12/23 02:22:46;;;;;;;83.75;27.95;;;1.50;66.20;;;;;;5053579;28;20128;-73
2020/12/23 02:25:13;;;;;;;95.05;34.25;;;1.50;66.30;;;;;;5053540;28;20025;-72
2020/12/23 02:27:40;;;;;;;84.82;30.33;;;1.60;67.00;;;;;;5052723;28;20079;-71
2020/12/23 02:30:07;;;;;;;81.70;29.25;;;1.60;66.80;;;;;;5053345;28;20068;-73
2020/12/23 02:32:33;;;;;;;64.03;23.55;;;1.50;66.10;;;;;;5053470;28;20074;-72
2020/12/23 02:34:59;;;;;;;50.53;20.15;;;1.50;66.10;;;;;;5053660;28;20017;-71
2020/12/23 02:37:25;;;;;;;47.92;19.27;;;1.50;66.00;;;;;;5053421;28;20021;-72
2020/12/23 02:39:53;;;;;;;47.55;18.98;;;1.50;65.90;;;;;;5053820;28;20037;-71
2020/12/23 02:42:22;;;;;;;39.55;17.63;;;1.50;66.30;;;;;;5052895;28;20025;-72
2020/12/23 02:44:48;;;;;;;61.25;22.92;;;1.50;66.20;;;;;;5053312;28;20025;-72
2020/12/23 02:47:15;;;;;;;62.88;23.90;;;1.50;66.20;;;;;;5053284;28;20342;-72
2020/12/23 02:49:41;;;;;;;65.93;24.70;;;1.50;66.30;;;;;;5051881;28;20025;-75
2020/12/23 02:52:09;;;;;;;52.33;18.63;;;1.50;66.40;;;;;;5053253;28;20025;-71
2020/12/23 02:54:36;;;;;;;43.78;18.58;;;1.50;66.20;;;;;;5053538;28;20410;-72
2020/12/23 02:57:05;;;;;;;42.60;17.25;;;1.50;66.20;;;;;;5055938;28;20453;-71
2020/12/23 02:59:31;;;;;;;42.88;15.88;;;1.50;66.20;;;;;;5057168;28;20535;-72
2020/12/23 03:01:57;;;;;;;40.90;16.35;;;1.50;66.60;;;;;;5057104;28;20059;-71
2020/12/23 03:04:23;;;;;;;37.85;16.17;;;1.50;66.60;;;;;;5055911;28;20079;-71
2020/12/23 03:06:49;;;;;;;40.92;16.92;;;1.50;66.70;;;;;;5057267;28;20029;-71
2020/12/23 03:09:14;;;;;;;39.38;15.07;;;1.50;66.80;;;;;;5055763;28;20112;-72
2020/12/23 03:11:40;;;;;;;25.55;12.27;;;1.60;66.60;;;;;;5056934;28;20132;-71
2020/12/23 03:14:07;;;;;;;33.33;15.10;;;1.50;66.30;;;;;;5056857;28;20028;-71
2020/12/23 03:16:32;;;;;;;43.55;16.23;;;1.50;66.60;;;;;;5057372;28;20096;-71
2020/12/23 03:18:59;;;;;;;30.92;13.35;;;1.50;66.90;;;;;;5056825;28;20021;-72
2020/12/23 03:21:25;;;;;;;28.92;14.07;;;1.50;67.00;;;;;;5056483;28;20021;-72
2020/12/23 03:23:51;;;;;;;24.77;12.73;;;1.50;67.00;;;;;;5055409;28;20024;-73
2020/12/23 03:26:17;;;;;;;21.80;10.77;;;1.50;67.10;;;;;;5056752;28;20027;-72
2020/12/23 03:28:42;;;;;;;28.67;12.30;;;1.50;66.90;;;;;;5056621;28;20071;-71
2020/12/23 03:31:08;;;;;;;27.27;13.43;;;1.50;66.80;;;;;;5057312;28;20079;-72
2020/12/23 03:33:34;;;;;;;25.00;11.55;;;1.50;67.00;;;;;;5056612;28;20078;-71
2020/12/23 03:36:01;;;;;;;27.35;13.10;;;1.60;67.10;;;;;;5056785;28;20502;-71
2020/12/23 03:38:26;;;;;;;23.30;11.48;;;1.60;66.80;;;;;;5056547;28;20029;-71
2020/12/23 03:40:53;;;;;;;26.05;11.60;;;1.60;66.70;;;;;;5056711;28;20037;-71
2020/12/23 03:43:19;;;;;;;29.58;12.20;;;1.50;66.70;;;;;;5056125;28;20017;-71
2020/12/23 03:45:44;;;;;;;25.75;11.95;;;1.60;67.00;;;;;;5056630;28;20040;-76
2020/12/23 03:48:11;;;;;;;25.88;13.27;;;1.60;66.90;;;;;;5056580;28;20029;-72
2020/12/23 03:50:36;;;;;;;20.98;12.30;;;1.60;66.80;;;;;;5056822;28;20051;-72
2020/12/23 03:53:02;;;;;;;24.92;13.20;;;1.60;66.80;;;;;;5056261;28;20021;-72
2020/12/23 03:55:28;;;;;;;23.85;12.40;;;1.60;66.80;;;;;;5056454;28;20029;-72
2020/12/23 03:57:54;;;;;;;22.13;12.90;;;1.70;67.00;;;;;;5056158;28;20416;-73
2020/12/23 04:00:20;;;;;;;24.67;12.93;;;1.70;66.90;;;;;;5056072;28;20021;-72
2020/12/23 04:02:45;;;;;;;23.20;11.63;;;1.70;66.70;;;;;;5055299;28;20099;-72
2020/12/23 04:05:11;;;;;;;21.63;11.38;;;1.70;66.40;;;;;;5054667;28;20399;-72
2020/12/23 04:07:37;;;;;;;21.20;11.13;;;1.70;66.30;;;;;;5055468;28;20025;-72
2020/12/23 04:10:07;;;;;;;21.58;11.30;;;1.70;66.50;;;;;;5056009;28;20175;-73
2020/12/23 04:12:35;;;;;;;21.92;10.63;;;1.60;66.40;;;;;;5055557;28;20017;-72
2020/12/23 04:15:11;;;;;;;21.83;10.38;;;1.60;66.40;;;;;;5054449;28;20072;-73
2020/12/23 04:17:37;;;;;;;27.70;13.30;;;1.60;66.40;;;;;;5055259;28;20090;-71
2020/12/23 04:20:05;;;;;;;24.42;12.55;;;1.60;66.60;;;;;;5055590;28;20038;-72
2020/12/23 04:22:30;;;;;;;21.23;11.13;;;1.50;67.10;;;;;;5055351;28;20094;-72
2020/12/23 04:25:01;;;;;;;21.52;10.95;;;1.50;66.40;;;;;;5054262;28;20453;-71
2020/12/23 04:27:30;;;;;;;17.75;8.55;;;1.40;66.50;;;;;;5055550;28;20017;-72
2020/12/23 04:29:55;;;;;;;17.80;9.52;;;1.40;66.70;;;;;;5055617;28;20075;-71
2020/12/23 04:32:22;;;;;;;20.95;9.45;;;1.40;66.80;;;;;;5055396;28;20025;-72
2020/12/23 04:34:47;;;;;;;17.98;9.77;;;1.30;67.00;;;;;;5055630;28;20021;-72
2020/12/23 04:37:13;;;;;;;22.08;10.68;;;1.30;67.30;;;;;;5055338;28;20043;-72
2020/12/23 04:39:39;;;;;;;27.67;12.88;;;1.30;67.40;;;;;;5055548;28;20033;-72
2020/12/23 04:42:05;;;;;;;28.80;14.02;;;1.30;67.60;;;;;;5055529;28;20423;-72
2020/12/23 04:44:31;;;;;;;27.70;12.80;;;1.30;67.90;;;;;;5055441;28;20020;-73
2020/12/23 04:46:58;;;;;;;36.42;16.00;;;1.40;67.90;;;;;;5054845;28;20484;-73
2020/12/23 04:49:24;;;;;;;31.27;13.90;;;1.40;68.20;;;;;;5055326;28;20025;-72
2020/12/23 04:51:53;;;;;;;29.40;14.88;;;1.50;68.10;;;;;;5055140;28;20029;-73
2020/12/23 04:54:20;;;;;;;26.73;13.75;;;1.50;67.70;;;;;;5055522;28;20429;-72
2020/12/23 04:56:46;;;;;;;26.38;14.65;;;1.50;67.50;;;;;;5053655;28;20108;-72
2020/12/23 04:59:12;;;;;;;25.33;11.85;;;1.50;67.50;;;;;;5054622;28;20048;-72
2020/12/23 05:01:37;;;;;;;32.83;14.88;;;1.50;67.50;;;;;;5054724;28;20415;-73
2020/12/23 05:04:03;;;;;;;30.80;14.88;;;1.50;67.40;;;;;;5054090;28;20017;-72
2020/12/23 05:06:29;;;;;;;22.42;11.98;;;1.40;67.60;;;;;;5054804;28;20021;-71
2020/12/23 05:08:55;;;;;;;29.92;15.07;;;1.40;67.80;;;;;;5053276;28;20104;-72
2020/12/23 05:11:20;;;;;;;28.75;14.73;;;1.50;68.00;;;;;;5055084;28;20095;-72
2020/12/23 05:13:46;;;;;;;40.45;16.30;;;1.50;68.00;;;;;;5054644;28;20028;-73
2020/12/23 05:16:21;;;;;;;29.92;14.70;;;1.50;67.90;;;;;;5053164;28;20107;-73
2020/12/23 05:18:47;;;;;;;25.92;13.88;;;1.50;67.90;;;;;;5052318;28;20055;-73
2020/12/23 05:21:16;;;;;;;25.10;13.18;;;1.50;67.70;;;;;;5054476;28;20029;-72
2020/12/23 05:23:46;;;;;;;28.13;14.88;;;1.40;67.90;;;;;;5054773;28;20053;-73
2020/12/23 05:26:13;;;;;;;30.63;14.00;;;1.40;67.90;;;;;;5054124;28;20492;-73
2020/12/23 05:28:40;;;;;;;26.58;13.68;;;1.40;67.70;;;;;;5054310;28;20109;-72
2020/12/23 05:31:07;;;;;;;24.73;12.18;;;1.40;67.90;;;;;;5053914;28;20380;-73
2020/12/23 05:33:39;;;;;;;34.45;15.60;;;1.40;68.00;;;;;;5053069;28;20088;-72
2020/12/23 05:36:07;;;;;;;32.47;15.75;;;1.40;67.80;;;;;;5054183;28;20055;-72
2020/12/23 05:38:34;;;;;;;35.42;16.15;;;1.40;68.00;;;;;;5054217;28;20360;-72
2020/12/23 05:41:02;;;;;;;30.92;16.42;;;1.40;68.00;;;;;;5054011;28;20430;-72
2020/12/23 05:43:28;;;;;;;32.30;16.02;;;1.50;67.90;;;;;;5052855;28;20028;-72
2020/12/23 05:45:59;;;;;;;37.75;17.45;;;1.50;68.00;;;;;;5053974;28;20427;-73
2020/12/23 05:48:27;;;;;;;37.13;17.60;;;1.50;68.20;;;;;;5054171;28;20021;-73
2020/12/23 05:50:52;;;;;;;33.33;16.58;;;1.50;68.00;;;;;;5053730;28;20029;-73
2020/12/23 05:53:18;;;;;;;34.80;17.05;;;1.50;68.00;;;;;;5052500;28;20369;-73
2020/12/23 05:55:53;;;;;;;32.78;16.23;;;1.50;67.80;;;;;;5054720;28;20021;-73
2020/12/23 05:58:23;;;;;;;38.50;16.98;;;1.50;67.90;;;;;;5054096;28;20052;-73
2020/12/23 06:00:50;;;;;;;36.78;17.45;;;1.50;67.70;;;;;;5053682;28;20469;-72
2020/12/23 06:03:58;;;;;;;34.25;14.98;;;1.50;67.70;;;;;;5054296;28;20326;-73
2020/12/23 06:06:28;;;;;;;31.77;12.57;;;1.50;67.70;;;;;;5054285;28;20388;-72
2020/12/23 06:08:59;;;;;;;35.83;14.20;;;1.50;67.60;;;;;;5052526;28;20454;-72
2020/12/23 06:11:30;;;;;;;35.75;14.32;;;1.40;67.70;;;;;;5053969;28;20123;-74
2020/12/23 06:14:14;;;;;;;34.08;13.93;;;1.40;67.80;;;;;;5052329;28;20522;-73
2020/12/23 06:16:40;;;;;;;30.67;16.40;;;1.50;68.00;;;;;;5053455;28;20057;-72
2020/12/23 06:19:12;;;;;;;28.65;13.82;;;1.50;68.10;;;;;;5053659;28;20059;-73
2020/12/23 06:21:39;;;;;;;38.28;17.33;;;1.60;68.00;;;;;;5052241;28;20017;-74
2020/12/23 06:24:13;;;;;;;45.67;20.35;;;1.60;67.80;;;;;;5053347;28;20021;-72
2020/12/23 06:26:41;;;;;;;47.17;19.95;;;1.60;67.90;;;;;;5053125;28;20518;-74
2020/12/23 06:29:12;;;;;;;49.05;22.63;;;1.60;67.80;;;;;;5051985;28;20025;-72
2020/12/23 06:31:51;;;;;;;82.03;28.88;;;1.70;68.00;;;;;;5052978;28;20024;-73
2020/12/23 06:34:22;;;;;;;85.63;31.15;;;1.80;67.90;;;;;;5053178;28;20025;-72
2020/12/23 06:36:49;;;;;;;71.30;27.90;;;1.80;67.60;;;;;;5052895;28;20036;-72
2020/12/23 06:39:26;;;;;;;74.88;26.92;;;1.80;67.90;;;;;;5052913;28;20025;-72
2020/12/23 06:41:59;;;;;;;42.50;19.27;;;1.90;67.90;;;;;;5053028;28;20025;-72
2020/12/23 06:44:45;;;;;;;41.65;19.70;;;2.00;67.60;;;;;;5052990;28;20044;-73
2020/12/23 06:47:13;;;;;;;39.50;16.85;;;2.00;67.40;;;;;;5052996;28;20084;-73
2020/12/23 06:49:44;;;;;;;34.05;16.05;;;2.10;67.40;;;;;;5051760;28;20128;-73
2020/12/23 06:52:22;;;;;;;33.03;16.38;;;2.10;67.40;;;;;;5053370;28;20276;-73
2020/12/23 06:55:08;;;;;;;43.60;17.23;;;2.20;67.20;;;;;;5053127;28;20372;-72
2020/12/23 06:57:37;;;;;;;29.23;14.73;;;2.20;67.00;;;;;;5052059;28;20452;-73
2020/12/23 07:00:25;;;;;;;33.35;17.15;;;2.20;66.80;;;;;;5052759;28;20028;-73
2020/12/23 07:02:52;;;;;;;38.85;17.25;;;2.20;66.60;;;;;;5053356;28;20103;-72
2020/12/23 07:05:23;;;;;;;42.45;19.23;;;2.20;66.80;;;;;;5052783;28;20044;-73
2020/12/23 07:07:53;;;;;;;51.35;20.63;;;2.20;67.00;;;;;;5053040;28;20059;-73
2020/12/23 07:10:21;;;;;;;90.13;33.42;;;2.30;67.20;;;;;;5051560;28;20052;-73
2020/12/23 07:12:55;;;;;;;136.10;46.13;;;2.30;66.80;;;;;;5053465;28;20319;-73
2020/12/23 07:15:23;;;;;;;116.82;39.50;;;2.30;66.30;;;;;;5052844;28;20021;-73
2020/12/23 07:18:13;;;;;;;133.73;43.65;;;2.30;66.40;;;;;;5052941;28;20032;-73
2020/12/23 07:20:57;;;;;;;121.30;42.42;;;2.20;66.40;;;;;;5053770;28;20347;-73
2020/12/23 07:23:23;;;;;;;118.00;38.30;;;2.20;66.50;;;;;;5052648;28;20017;-73
2020/12/23 07:25:54;;;;;;;99.82;36.03;;;2.20;66.30;;;;;;5052800;28;20350;-73
2020/12/23 07:28:36;;;;;;;86.40;31.63;;;2.20;66.20;;;;;;5051579;28;20032;-74
2020/12/23 07:31:02;;;;;;;102.50;35.30;;;2.20;66.00;;;;;;5052861;28;20318;-75
2020/12/23 07:33:29;;;;;;;107.13;37.00;;;2.10;66.20;;;;;;5050975;28;20032;-74
2020/12/23 07:35:57;;;;;;;101.07;38.38;;;2.20;66.40;;;;;;5052547;28;20449;-74
2020/12/23 07:38:25;;;;;;;120.95;42.10;;;2.10;66.40;;;;;;5051513;28;20052;-72
2020/12/23 07:40:52;;;;;;;93.78;36.30;;;2.10;66.60;;;;;;5051495;28;20404;-73
2020/12/23 07:43:19;;;;;;;72.60;27.77;;;2.20;66.70;;;;;;5054270;28;20020;-73
2020/12/23 07:45:45;;;;;;;92.93;36.20;;;2.20;66.50;;;;;;5054984;28;20032;-72
2020/12/23 07:48:14;;;;;;;98.97;38.17;;;2.20;66.60;;;;;;5056192;28;20338;-72
2020/12/23 07:50:45;;;;;;;113.68;38.67;;;2.20;66.40;;;;;;5056128;28;20160;-72
2020/12/23 07:53:15;;;;;;;66.40;27.33;;;2.20;66.40;;;;;;5056710;28;20116;-73
2020/12/23 07:55:43;;;;;;;94.18;38.38;;;2.20;66.60;;;;;;5054588;28;20107;-72
2020/12/23 07:58:10;;;;;;;97.95;37.20;;;2.20;66.40;;;;;;5056225;28;20023;-72
2020/12/23 08:00:39;;;;;;;112.88;36.95;;;2.20;66.70;;;;;;5055829;28;20519;-73
2020/12/23 08:03:07;;;;;;;120.90;41.75;;;2.30;66.90;;;;;;5056040;28;20052;-72
2020/12/23 08:05:33;;;;;;;107.15;38.50;;;2.30;66.90;;;;;;5056254;28;20029;-74
2020/12/23 08:07:59;;;;;;;109.15;40.25;;;2.40;66.90;;;;;;5054619;28;20024;-73
2020/12/23 08:10:27;;;;;;;97.85;35.90;;;2.50;66.60;;;;;;5055575;28;20052;-72
2020/12/23 08:13:01;;;;;;;112.28;38.83;;;2.50;66.50;;;;;;5054517;28;20108;-73
2020/12/23 08:15:28;;;;;;;101.97;37.42;;;2.50;66.60;;;;;;5056624;28;20021;-73
2020/12/23 08:18:10;;;;;;;99.18;37.78;;;2.50;66.20;;;;;;5055920;28;20025;-71
2020/12/23 08:20:36;;;;;;;81.80;29.60;;;2.50;66.20;;;;;;5038281;28;20027;-72
2020/12/23 08:23:02;;;;;;;40.78;17.95;;;2.60;66.70;;;;;;5055776;28;20103;-73
2020/12/23 08:25:30;;;;;;;37.95;18.08;;;2.70;66.60;;;;;;5055554;28;20021;-73
2020/12/23 08:27:57;;;;;;;46.33;20.15;;;2.80;66.50;;;;;;5055370;28;20032;-72
2020/12/23 08:30:23;;;;;;;41.58;17.63;;;2.80;66.30;;;;;;5055428;28;20029;-72
2020/12/23 08:33:07;;;;;;;38.50;16.95;;;2.90;66.10;;;;;;5055396;28;20358;-75
2020/12/23 08:35:39;;;;;;;37.17;18.23;;;3.00;65.90;;;;;;5055374;28;20017;-74
2020/12/23 08:38:14;;;;;;;45.88;19.23;;;3.00;65.60;;;;;;5055005;28;20071;-74
2020/12/23 08:40:54;;;;;;;53.22;19.08;;;3.00;65.60;;;;;;5038957;28;20475;-73
2020/12/23 08:43:31;;;;;;;38.55;16.95;;;3.10;65.50;;;;;;5055015;28;20029;-73
2020/12/23 08:45:58;;;;;;;40.88;16.75;;;3.10;65.40;;;;;;5053743;28;20048;-74
2020/12/23 08:48:30;;;;;;;71.20;27.98;;;3.10;65.70;;;;;;5055258;28;20038;-73
2020/12/23 08:51:04;;;;;;;86.57;34.60;;;3.20;65.70;;;;;;5054366;28;20102;-74
2020/12/23 08:53:38;;;;;;;94.20;34.58;;;3.20;65.40;;;;;;5053675;28;20032;-72
2020/12/23 08:56:34;;;;;;;93.50;36.40;;;3.20;65.20;;;;;;5054893;28;20078;-73
2020/12/23 08:59:06;;;;;;;117.07;40.33;;;3.20;65.10;;;;;;5054903;28;20441;-74
2020/12/23 09:01:34;;;;;;;128.43;45.85;;;3.10;64.70;;;;;;5053478;28;20055;-74
2020/12/23 09:04:04;;;;;;;117.90;43.08;;;3.10;64.70;;;;;;5054789;28;20086;-75
2020/12/23 09:06:30;;;;;;;124.70;43.03;;;3.00;64.80;;;;;;5054847;28;20021;-73
2020/12/23 09:09:09;;;;;;;138.00;46.95;;;3.00;64.90;;;;;;5055147;28;20017;-73
2020/12/23 09:11:41;;;;;;;108.38;40.58;;;3.00;65.00;;;;;;5053692;28;20094;-72
2020/12/23 09:14:34;;;;;;;124.78;43.30;;;3.00;65.00;;;;;;5054365;28;20020;-74
2020/12/23 09:17:01;;;;;;;102.82;39.05;;;3.10;65.10;;;;;;5052890;28;20035;-77
2020/12/23 09:19:53;;;;;;;112.53;42.97;;;3.10;65.30;;;;;;5053079;28;20036;-75
2020/12/23 09:22:37;;;;;;;113.85;39.58;;;3.10;65.40;;;;;;5054959;28;20339;-73
2020/12/23 09:25:25;;;;;;;107.53;42.47;;;3.30;65.70;;;;;;5054600;28;20044;-72
2020/12/23 09:27:55;;;;;;;119.15;44.80;;;3.40;65.40;;;;;;5054035;28;20469;-73
2020/12/23 09:30:35;;;;;;;126.93;46.10;;;3.40;64.90;;;;;;5054468;28;20033;-73
2020/12/23 09:33:00;;;;;;;113.70;38.08;;;3.40;65.00;;;;;;5054693;28;20031;-76
2020/12/23 09:35:27;;;;;;;98.28;36.17;;;3.50;64.80;;;;;;5054529;28;20484;-72
2020/12/23 09:38:08;;;;;;;103.53;38.65;;;3.50;64.60;;;;;;5054154;28;20086;-73
2020/12/23 09:40:36;;;;;;;120.32;44.95;;;3.50;64.50;;;;;;5054240;28;20025;-73
2020/12/23 09:43:07;;;;;;;142.40;51.72;;;3.40;64.40;;;;;;5052738;28;20136;-73
2020/12/23 09:45:33;;;;;;;102.57;40.25;;;3.40;64.40;;;;;;5053704;28;20503;-73
2020/12/23 09:47:58;;;;;;;95.57;36.78;;;3.40;64.50;;;;;;5053783;28;20029;-73
2020/12/23 09:50:24;;;;;;;87.82;31.27;;;3.40;64.50;;;;;;5053574;28;20026;-73
2020/12/23 09:52:50;;;;;;;109.40;39.22;;;3.40;64.40;;;;;;5054123;28;20465;-72
2020/12/23 09:55:15;;;;;;;155.18;56.80;;;3.40;64.30;;;;;;5053742;28;20404;-72
2020/12/23 09:57:41;;;;;;;118.40;44.45;;;3.40;64.40;;;;;;5052545;28;20056;-73
2020/12/23 10:00:08;;;;;;;114.15;43.45;;;3.50;65.30;;;;;;5053754;28;20056;-72
2020/12/23 10:02:33;;;;;;;91.22;34.83;;;3.70;65.30;;;;;;5053922;28;20071;-72
2020/12/23 10:04:59;;;;;;;121.28;44.33;;;3.80;64.40;;;;;;5051811;28;20017;-71
2020/12/23 10:07:25;;;;;;;93.28;37.72;;;3.80;63.80;;;;;;5053846;28;20025;-72
2020/12/23 10:09:51;;;;;;;95.38;37.60;;;3.80;63.70;;;;;;5053970;28;20056;-71
2020/12/23 10:12:19;;;;;;;90.95;34.80;;;3.70;63.70;;;;;;5053528;28;20048;-72
2020/12/23 10:14:45;;;;;;;82.93;33.25;;;3.70;63.80;;;;;;5053173;28;20475;-73
2020/12/23 10:17:17;;;;;;;97.43;38.42;;;3.80;64.10;;;;;;5053009;28;20067;-73
2020/12/23 10:19:44;;;;;;;41.70;18.50;;;3.80;64.20;;;;;;5052377;28;20029;-74
2020/12/23 10:22:10;;;;;;;69.00;26.85;;;3.90;63.70;;;;;;5052565;28;20476;-74
2020/12/23 10:24:35;;;;;;;46.13;21.95;;;3.80;63.30;;;;;;5053952;28;20025;-74
2020/12/23 10:27:01;;;;;;;45.67;20.40;;;3.70;63.20;;;;;;5053454;28;20028;-73
2020/12/23 10:29:27;;;;;;;36.58;17.98;;;3.70;63.60;;;;;;5051995;28;20055;-74
2020/12/23 10:31:52;;;;;;;55.58;24.55;;;3.60;63.40;;;;;;5053273;28;20036;-72
2020/12/23 10:34:18;;;;;;;61.65;24.30;;;3.50;63.50;;;;;;5053878;28;20023;-74
2020/12/23 10:36:47;;;;;;;68.43;28.45;;;3.50;64.00;;;;;;5053606;28;20025;-73
2020/12/23 10:39:14;;;;;;;64.10;27.52;;;3.60;64.90;;;;;;5053371;28;20028;-73
2020/12/23 10:41:39;;;;;;;65.65;26.95;;;3.60;64.20;;;;;;5051563;28;20053;-74
2020/12/23 10:44:05;;;;;;;61.58;26.42;;;3.70;64.10;;;;;;5053153;28;20045;-72
2020/12/23 10:46:31;;;;;;;73.18;27.48;;;3.70;64.00;;;;;;5052708;28;20124;-73
2020/12/23 10:48:56;;;;;;;59.28;25.42;;;3.70;63.70;;;;;;5054041;28;20063;-76
2020/12/23 10:51:22;;;;;;;67.95;27.08;;;3.60;63.90;;;;;;5052929;28;20445;-75
2020/12/23 10:53:48;;;;;;;66.97;28.65;;;3.60;64.30;;;;;;5052783;28;20025;-74
2020/12/23 10:56:13;;;;;;;67.05;26.38;;;3.70;64.10;;;;;;5053608;28;20361;-73
2020/12/23 10:58:39;;;;;;;69.63;26.50;;;3.60;64.00;;;;;;5052708;28;20021;-73
2020/12/23 11:01:05;;;;;;;73.28;27.67;;;3.70;64.20;;;;;;5053083;28;20025;-75
2020/12/23 11:03:32;;;;;;;77.57;30.63;;;3.70;64.20;;;;;;5052715;28;20033;-74
2020/12/23 11:05:59;;;;;;;82.15;31.13;;;3.70;63.90;;;;;;5053317;28;20088;-76
2020/12/23 11:08:38;;;;;;;84.07;34.67;;;3.70;63.70;;;;;;5052958;28;20032;-74
2020/12/23 11:11:04;;;;;;;92.68;34.78;;;3.60;63.90;;;;;;5053284;28;20045;-75
2020/12/23 11:13:30;;;;;;;89.25;33.00;;;3.60;64.00;;;;;;5053651;28;20032;-72
2020/12/23 11:15:55;;;;;;;90.35;32.65;;;3.60;64.10;;;;;;5052738;28;20023;-72
2020/12/23 11:18:21;;;;;;;100.28;37.97;;;3.60;64.10;;;;;;5055699;28;20167;-74
2020/12/23 11:20:47;;;;;;;144.48;49.90;;;3.60;64.00;;;;;;5056778;28;20052;-73
2020/12/23 11:23:24;;;;;;;172.27;57.25;;;3.50;64.00;;;;;;5055461;28;20421;-73
2020/12/23 11:25:50;;;;;;;121.93;45.28;;;3.50;64.10;;;;;;5055900;28;20019;-74
2020/12/23 11:28:15;;;;;;;137.63;48.47;;;3.40;64.30;;;;;;5055648;28;20349;-74
2020/12/23 11:30:41;;;;;;;68.13;27.40;;;3.40;64.40;;;;;;5056146;28;20027;-73
2020/12/23 11:33:07;;;;;;;75.07;28.65;;;3.40;64.60;;;;;;5057002;28;20056;-74
2020/12/23 11:35:32;;;;;;;72.95;30.27;;;3.40;64.30;;;;;;5057087;28;20025;-74
2020/12/23 11:37:58;;;;;;;55.17;22.42;;;3.40;64.10;;;;;;5057134;28;20417;-73
2020/12/23 11:40:24;;;;;;;64.20;27.63;;;3.30;64.20;;;;;;5057030;28;20425;-74
2020/12/23 11:42:49;;;;;;;81.47;30.75;;;3.30;64.40;;;;;;5055129;28;20059;-74
2020/12/23 11:45:15;;;;;;;58.80;25.38;;;3.30;64.40;;;;;;5056712;28;20396;-75
2020/12/23 11:47:42;;;;;;;91.70;33.08;;;3.30;64.40;;;;;;5057055;28;20053;-74
2020/12/23 11:50:07;;;;;;;80.75;30.65;;;3.20;64.50;;;;;;5056584;28;20074;-74
2020/12/23 11:52:33;;;;;;;91.07;33.58;;;3.20;64.50;;;;;;5056120;28;20025;-74
2020/12/23 11:54:59;;;;;;;113.22;40.00;;;3.10;64.60;;;;;;5054822;28;20025;-75
2020/12/23 11:57:25;;;;;;;112.30;42.40;;;3.10;64.70;;;;;;5055864;28;20029;-75
2020/12/23 11:59:54;;;;;;;106.13;40.67;;;3.10;64.90;;;;;;5056049;28;20036;-72
2020/12/23 12:02:20;;;;;;;129.93;47.80;;;3.10;64.90;;;;;;5056095;28;20029;-74
2020/12/23 12:04:46;;;;;;;106.53;37.50;;;3.10;65.40;;;;;;5056545;28;20027;-74
2020/12/23 12:07:12;;;;;;;88.45;33.63;;;3.10;65.00;;;;;;5056113;28;20449;-74
2020/12/23 12:09:37;;;;;;;88.05;31.13;;;3.00;65.00;;;;;;5054190;28;20488;-74
2020/12/23 12:12:03;;;;;;;85.43;31.58;;;3.00;64.90;;;;;;5055874;28;20021;-74
2020/12/23 12:14:30;;;;;;;49.78;20.17;;;2.90;65.10;;;;;;5056108;28;20028;-73
2020/12/23 12:16:56;;;;;;;51.33;21.13;;;2.90;65.10;;;;;;5055819;28;20021;-74
2020/12/23 12:19:21;;;;;;;73.78;27.42;;;2.90;65.40;;;;;;5055849;28;20047;-73
2020/12/23 12:21:47;;;;;;;82.85;30.88;;;2.90;65.60;;;;;;5056174;28;20043;-74
2020/12/23 12:24:13;;;;;;;108.50;35.20;;;2.90;65.60;;;;;;5055674;28;20346;-74
2020/12/23 12:26:38;;;;;;;88.28;32.13;;;2.90;65.70;;;;;;5054291;28;20025;-73
2020/12/23 12:29:04;;;;;;;104.00;35.10;;;2.90;65.80;;;;;;5054969;28;20025;-73
2020/12/23 12:31:30;;;;;;;107.65;37.95;;;3.00;65.60;;;;;;5054931;28;20028;-73
2020/12/23 12:33:57;;;;;;;112.57;41.53;;;2.90;65.50;;;;;;5055236;28;20073;-73
2020/12/23 12:36:24;;;;;;;96.88;37.55;;;2.90;65.90;;;;;;5055640;28;20063;-73
2020/12/23 12:38:50;;;;;;;90.65;34.70;;;2.90;65.80;;;;;;5054031;28;20466;-77
2020/12/23 12:41:25;;;;;;;104.45;37.40;;;2.90;65.80;;;;;;5055200;28;20461;-74